createdAt,value
2022-10-11T00:01:00.022Z,11.63
2022-10-11T00:03:36.983Z,18.40
2022-10-11T00:06:20.125Z,16.45
2022-10-11T00:09:02.593Z,10.82
2022-10-11T00:11:45.696Z,10.20
2022-10-11T00:14:33.001Z,9.90
2022-10-11T00:17:14.309Z,11.52
2022-10-11T00:20:10.724Z,8.38
2022-10-11T00:22:51.539Z,10.98
2022-10-11T00:25:40.696Z,8.98
2022-10-11T00:28:27.360Z,11.55
2022-10-11T00:31:16.271Z,10.00
2022-10-11T00:33:56.610Z,10.80
2022-10-11T00:36:36.979Z,9.88
2022-10-11T00:39:23.732Z,9.52
2022-10-11T00:42:15.524Z,11.88
2022-10-11T00:45:22.680Z,9.32
2022-10-11T00:48:05.783Z,12.32
2022-10-11T00:51:00.287Z,9.07
2022-10-11T00:53:46.709Z,9.80
2022-10-11T00:56:32.376Z,12.27
2022-10-11T00:59:16.967Z,11.57
2022-10-11T01:02:02.487Z,11.07
2022-10-11T01:04:46.827Z,10.77
2022-10-11T01:07:32.357Z,10.32
2022-10-11T01:10:11.875Z,11.60
2022-10-11T01:13:21.607Z,12.05
2022-10-11T01:16:20.186Z,10.65
2022-10-11T01:22:21.693Z,11.63
2022-10-11T01:25:20.188Z,10.63
2022-10-11T01:28:35.396Z,8.67
2022-10-11T01:31:25.108Z,17.25
2022-10-11T01:34:06.023Z,11.05
2022-10-11T01:36:52.425Z,13.38
2022-10-11T01:40:04.778Z,12.45
2022-10-11T01:42:51.997Z,11.52
2022-10-11T01:45:32.057Z,11.52
2022-10-11T01:48:21.811Z,12.95
2022-10-11T01:51:07.514Z,12.57
2022-10-11T01:54:12.967Z,12.98
2022-10-11T01:57:13.632Z,11.18
2022-10-11T02:00:28.776Z,11.07
2022-10-11T02:03:22.579Z,15.85
2022-10-11T02:06:18.509Z,11.18
2022-10-11T02:09:38.088Z,11.80
2022-10-11T02:12:49.678Z,16.10
2022-10-11T02:15:39.342Z,13.15
2022-10-11T02:18:32.761Z,12.00
2022-10-11T02:21:32.666Z,12.65
2022-10-11T02:24:30.435Z,13.30
2022-10-11T02:27:10.912Z,14.20
2022-10-11T02:29:53.928Z,13.93
2022-10-11T02:32:39.258Z,17.67
2022-10-11T02:35:26.388Z,16.13
2022-10-11T02:38:25.165Z,13.85
2022-10-11T02:41:16.910Z,12.23
2022-10-11T02:44:10.794Z,12.55
2022-10-11T02:46:52.876Z,18.70
2022-10-11T02:49:35.511Z,13.90
2022-10-11T02:52:20.969Z,12.75
2022-10-11T02:55:01.870Z,17.73
2022-10-11T02:57:47.331Z,15.10
2022-10-11T03:00:36.647Z,16.17
2022-10-11T03:03:18.404Z,15.45
2022-10-11T03:06:05.209Z,21.75
2022-10-11T03:08:52.222Z,20.85
2022-10-11T03:11:41.466Z,13.88
2022-10-11T03:14:26.303Z,16.50
2022-10-11T03:20:16.172Z,19.88
2022-10-11T03:23:00.353Z,16.77
2022-10-11T03:25:47.956Z,19.73
2022-10-11T03:28:28.611Z,15.65
2022-10-11T03:31:09.988Z,15.27
2022-10-11T03:33:56.303Z,18.25
2022-10-11T03:36:37.633Z,22.55
2022-10-11T03:39:18.102Z,21.65
2022-10-11T03:42:09.408Z,18.85
2022-10-11T03:44:52.119Z,19.17
2022-10-11T03:47:40.988Z,17.27
2022-10-11T03:50:22.738Z,15.55
2022-10-11T03:53:04.420Z,17.90
2022-10-11T03:55:43.771Z,16.17
2022-10-11T03:58:23.819Z,21.73
2022-10-11T04:01:11.050Z,18.65
2022-10-11T04:03:58.444Z,18.58
2022-10-11T04:06:39.984Z,22.15
2022-10-11T04:09:22.765Z,24.05
2022-10-11T04:12:04.159Z,26.08
2022-10-11T04:14:44.858Z,23.45
2022-10-11T04:17:23.809Z,24.23
2022-10-11T04:20:10.271Z,16.77
2022-10-11T04:23:19.882Z,21.52
2022-10-11T04:26:00.757Z,17.35
2022-10-11T04:28:46.877Z,22.88
2022-10-11T04:31:31.388Z,20.67
2022-10-11T04:34:26.820Z,18.38
2022-10-11T04:37:08.741Z,17.95
2022-10-11T04:39:50.992Z,21.45
2022-10-11T04:42:35.165Z,23.58
2022-10-11T04:45:26.172Z,24.52
2022-10-11T04:48:20.126Z,22.42
2022-10-11T04:51:08.115Z,21.67
2022-10-11T04:54:09.046Z,40.13
2022-10-11T04:57:11.124Z,28.02
2022-10-11T04:59:56.521Z,25.85
2022-10-11T05:02:55.057Z,23.40
2022-10-11T05:05:35.885Z,23.50
2022-10-11T05:08:23.922Z,23.38
2022-10-11T05:11:10.163Z,21.00
2022-10-11T05:13:50.531Z,23.25
2022-10-11T05:19:41.218Z,24.02
2022-10-11T05:22:21.943Z,27.63
2022-10-11T05:25:04.131Z,28.75
2022-10-11T05:30:32.171Z,25.63
2022-10-11T05:33:15.061Z,23.02
2022-10-11T05:35:55.311Z,25.75
2022-10-11T05:38:39.264Z,34.20
2022-10-11T05:41:21.551Z,18.80
2022-10-11T05:44:10.371Z,21.02
2022-10-11T05:46:54.725Z,22.05
2022-10-11T05:49:44.897Z,35.33
2022-10-11T05:52:27.403Z,23.00
2022-10-11T05:55:10.211Z,22.45
2022-10-11T05:57:56.475Z,54.08
2022-10-11T06:00:39.519Z,31.35
2022-10-11T06:03:16.980Z,23.55
2022-10-11T06:06:08.790Z,31.40
2022-10-11T06:12:10.794Z,34.20
2022-10-11T06:15:24.400Z,19.73
2022-10-11T06:18:30.216Z,16.60
2022-10-11T06:21:10.824Z,15.90
2022-10-11T06:24:06.926Z,13.57
2022-10-11T06:26:50.072Z,15.57
2022-10-11T06:29:29.769Z,12.85
2022-10-11T06:32:27.468Z,8.38
2022-10-11T06:35:42.934Z,9.63
2022-10-11T06:38:45.158Z,10.13
2022-10-11T06:42:03.778Z,10.13
2022-10-11T06:45:08.332Z,8.75
2022-10-11T06:48:05.952Z,8.25
2022-10-11T07:00:23.138Z,14.90
2022-10-11T07:06:00.147Z,7.82
2022-10-11T07:09:04.046Z,6.82
2022-10-11T07:12:03.753Z,6.25
2022-10-11T07:15:08.190Z,6.57
2022-10-11T07:18:14.421Z,5.72
2022-10-11T07:21:13.883Z,6.55
2022-10-11T07:24:14.753Z,7.00
2022-10-11T07:27:23.146Z,5.32
2022-10-11T07:30:20.330Z,7.82
2022-10-11T07:33:23.927Z,6.43
2022-10-11T07:36:30.172Z,6.75
2022-10-11T07:39:38.365Z,6.13
2022-10-11T07:51:36.926Z,6.90
2022-10-11T08:00:30.971Z,6.85
2022-10-11T08:06:31.942Z,9.00
2022-10-11T08:12:50.708Z,6.57
2022-10-11T08:15:53.059Z,7.55
2022-10-11T08:18:51.003Z,8.52
2022-10-11T08:21:52.381Z,7.55
2022-10-11T08:24:49.913Z,8.48
2022-10-11T08:27:44.658Z,6.40
2022-10-11T08:33:37.955Z,10.02
2022-10-11T08:36:27.700Z,11.48
2022-10-11T08:39:35.738Z,7.00
2022-10-11T08:42:44.695Z,6.25
2022-10-11T08:45:39.395Z,6.57
2022-10-11T08:48:39.379Z,10.43
2022-10-11T08:57:27.913Z,7.85
2022-10-11T09:00:20.914Z,6.18
2022-10-11T09:17:13.374Z,11.95
2022-10-11T09:20:00.764Z,7.97
2022-10-11T09:22:53.903Z,4.70
2022-10-11T09:25:56.828Z,4.30
2022-10-11T09:29:04.250Z,4.70
2022-10-11T09:31:34.145Z,4.43
2022-10-11T09:34:18.235Z,6.68
2022-10-11T09:37:15.368Z,3.30
2022-10-11T09:40:10.135Z,7.35
2022-10-11T09:42:50.556Z,5.40
2022-10-11T09:45:22.261Z,6.88
2022-10-11T09:47:58.170Z,4.95
2022-10-11T09:50:30.958Z,6.50
2022-10-11T09:53:08.308Z,6.22
2022-10-11T09:56:06.761Z,22.48
2022-10-11T09:58:39.067Z,6.32
2022-10-11T10:01:14.996Z,14.00
2022-10-11T10:03:46.748Z,17.08
2022-10-11T10:06:46.232Z,6.65
2022-10-11T10:09:30.717Z,6.22
2022-10-11T10:12:14.164Z,6.65
2022-10-11T10:14:45.158Z,13.77
2022-10-11T10:17:28.751Z,6.82
2022-10-11T10:20:00.935Z,7.28
2022-10-11T10:22:36.563Z,9.93
2022-10-11T10:25:13.696Z,16.20
2022-10-11T10:27:59.470Z,5.88
2022-10-11T10:33:16.218Z,9.80
2022-10-11T10:36:08.513Z,6.80
2022-10-11T10:39:00.514Z,12.23
2022-10-11T10:41:37.224Z,7.22
2022-10-11T10:44:10.711Z,7.88
2022-10-11T10:47:03.343Z,8.52
2022-10-11T10:50:19.554Z,9.30
2022-10-11T10:53:27.535Z,6.85
2022-10-11T10:56:44.833Z,21.23
2022-10-11T10:59:48.760Z,9.13
2022-10-11T11:02:40.196Z,14.20
2022-10-11T11:05:18.444Z,7.63
2022-10-11T11:07:59.831Z,4.85
2022-10-11T11:14:11.572Z,5.40
2022-10-11T11:16:58.913Z,6.28
2022-10-11T11:20:05.648Z,18.13
2022-10-11T11:23:01.079Z,11.98
2022-10-11T11:25:42.608Z,8.32
2022-10-11T11:28:56.513Z,10.23
2022-10-11T11:32:13.255Z,8.20
2022-10-11T11:34:47.380Z,4.63
2022-10-11T11:37:24.149Z,15.60
2022-10-11T11:40:05.960Z,7.18
2022-10-11T11:42:52.059Z,8.52
2022-10-11T11:45:59.517Z,10.13
2022-10-11T11:48:30.418Z,5.68
2022-10-11T11:51:33.068Z,8.80
2022-10-11T11:54:33.193Z,7.45
2022-10-11T11:57:23.329Z,5.72
2022-10-11T12:00:02.185Z,4.75
2022-10-11T12:03:14.490Z,10.05
2022-10-11T12:06:14.273Z,6.00
2022-10-11T12:08:57.082Z,8.05
2022-10-11T12:11:38.764Z,5.13
2022-10-11T12:14:36.163Z,7.47
2022-10-11T12:17:09.344Z,10.27
2022-10-11T12:19:40.257Z,7.80
2022-10-11T12:22:37.817Z,4.82
2022-10-11T12:25:27.555Z,8.20
2022-10-11T12:28:01.072Z,10.95
2022-10-11T12:31:03.889Z,5.22
2022-10-11T12:33:37.485Z,15.27
2022-10-11T12:36:35.092Z,13.48
2022-10-11T12:39:22.064Z,5.80
2022-10-11T12:41:50.486Z,6.05
2022-10-11T12:44:18.920Z,4.45
2022-10-11T12:46:54.707Z,7.03
2022-10-11T12:50:10.859Z,5.18
2022-10-11T12:53:09.963Z,4.85
2022-10-11T12:55:53.428Z,4.72
2022-10-11T12:58:51.254Z,4.72
2022-10-11T13:01:23.453Z,8.93
2022-10-11T13:04:07.456Z,7.18
2022-10-11T13:09:46.614Z,5.28
2022-10-11T13:12:22.864Z,3.28
2022-10-11T13:15:08.597Z,9.60
2022-10-11T13:17:39.250Z,8.27
2022-10-11T13:20:21.710Z,4.30
2022-10-11T13:22:53.077Z,7.60
2022-10-11T13:25:28.944Z,6.80
2022-10-11T13:28:07.474Z,5.93
2022-10-11T13:30:45.268Z,6.93
2022-10-11T13:33:32.979Z,8.13
2022-10-11T13:36:19.303Z,4.45
2022-10-11T13:39:03.974Z,10.65
2022-10-11T13:41:35.242Z,6.35
2022-10-11T13:44:04.704Z,10.38
2022-10-11T13:46:38.722Z,14.63
2022-10-11T13:49:41.399Z,12.32
2022-10-11T13:52:18.825Z,6.03
2022-10-11T13:54:59.141Z,6.07
2022-10-11T13:57:38.443Z,12.63
2022-10-11T14:00:37.671Z,10.43
2022-10-11T14:03:16.226Z,5.55
2022-10-11T14:06:02.013Z,8.90
2022-10-11T14:08:44.281Z,8.88
2022-10-11T14:11:16.404Z,6.70
2022-10-11T14:13:51.708Z,5.20
2022-10-11T14:16:25.015Z,12.35
2022-10-11T14:19:15.763Z,7.30
2022-10-11T14:21:49.787Z,6.03
2022-10-11T14:24:23.237Z,11.38
2022-10-11T14:27:01.321Z,21.25
2022-10-11T14:29:32.955Z,7.85
2022-10-11T14:32:05.065Z,18.42
2022-10-11T14:34:42.715Z,12.20
2022-10-11T14:37:16.457Z,13.70
2022-10-11T14:39:53.873Z,12.27
2022-10-11T14:42:26.798Z,12.00
2022-10-11T14:44:56.708Z,19.65
2022-10-11T14:47:48.432Z,57.90
2022-10-11T14:50:26.644Z,21.52
2022-10-11T14:53:11.198Z,12.75
2022-10-11T14:55:42.476Z,7.35
2022-10-11T14:58:19.797Z,8.25
2022-10-11T15:00:53.894Z,12.43
2022-10-11T15:03:24.683Z,134.90
2022-10-11T15:05:56.391Z,47.33
2022-10-11T15:08:32.552Z,260.33
2022-10-11T15:11:11.751Z,25.05
2022-10-11T15:13:46.836Z,24.27
2022-10-11T15:18:57.751Z,20.02
2022-10-11T15:21:35.983Z,10.13
2022-10-11T15:24:08.840Z,24.27
2022-10-11T15:26:40.043Z,27.38
2022-10-11T15:29:22.000Z,27.05
2022-10-11T15:31:52.121Z,32.40
2022-10-11T15:34:21.930Z,24.70
2022-10-11T15:37:00.409Z,27.55
2022-10-11T15:40:00.025Z,37.15
2022-10-11T15:42:32.961Z,32.63
2022-10-11T15:45:01.984Z,36.88
2022-10-11T15:47:30.734Z,50.03
2022-10-11T15:50:08.197Z,54.55
2022-10-11T15:52:37.283Z,58.63
2022-10-11T15:55:08.220Z,54.10
2022-10-11T15:57:38.174Z,40.63
2022-10-11T16:00:11.144Z,47.30
2022-10-11T16:02:47.609Z,51.67
2022-10-11T16:05:21.223Z,59.75
2022-10-11T16:07:52.656Z,54.58
2022-10-11T16:10:32.972Z,58.88
2022-10-11T16:13:07.813Z,82.43
2022-10-11T16:15:41.085Z,99.10
2022-10-11T16:18:22.570Z,97.03
2022-10-11T16:21:00.571Z,87.57
2022-10-11T16:23:31.731Z,93.93
2022-10-11T16:26:05.745Z,82.97
2022-10-11T16:28:35.093Z,91.55
2022-10-11T16:31:39.454Z,101.07
2022-10-11T16:34:10.537Z,87.60
2022-10-11T16:36:45.863Z,91.28
2022-10-11T16:39:15.807Z,62.42
2022-10-11T16:41:51.925Z,42.33
2022-10-11T16:44:27.999Z,50.22
2022-10-11T16:46:59.881Z,93.53
2022-10-11T16:49:29.303Z,76.13
2022-10-11T16:52:07.123Z,68.55
2022-10-11T16:54:36.585Z,90.88
2022-10-11T16:57:06.114Z,46.20
2022-10-11T16:59:34.776Z,40.00
2022-10-11T17:02:10.071Z,33.10
2022-10-11T17:04:42.894Z,37.17
2022-10-11T17:07:22.315Z,66.85
2022-10-11T17:09:53.785Z,74.40
2022-10-11T17:12:26.222Z,40.60
2022-10-11T17:14:57.584Z,26.80
2022-10-11T17:17:28.816Z,20.90
2022-10-11T17:20:03.537Z,54.90
2022-10-11T17:22:36.033Z,55.83
2022-10-11T17:25:14.457Z,40.60
2022-10-11T17:27:53.984Z,42.28
2022-10-11T17:30:33.181Z,42.97
2022-10-11T17:33:09.338Z,74.45
2022-10-11T17:35:39.855Z,53.70
2022-10-11T17:38:11.696Z,72.97
2022-10-11T17:40:52.585Z,62.72
2022-10-11T17:43:34.207Z,38.78
2022-10-11T17:46:06.768Z,51.95
2022-10-11T17:48:37.035Z,67.25
2022-10-11T17:51:09.389Z,54.95
2022-10-11T17:53:45.486Z,49.53
2022-10-11T18:01:52.791Z,49.00
2022-10-11T18:04:30.311Z,55.80
2022-10-11T18:06:58.857Z,44.72
2022-10-11T18:09:33.960Z,38.83
2022-10-11T18:12:03.202Z,34.58
2022-10-11T18:14:37.659Z,33.80
2022-10-11T18:17:06.836Z,35.22
2022-10-11T18:19:36.789Z,34.75
2022-10-11T18:22:07.499Z,34.85
2022-10-11T18:24:48.688Z,31.40
2022-10-11T18:27:18.026Z,46.97
2022-10-11T18:29:52.874Z,64.00
2022-10-11T18:32:25.099Z,68.68
2022-10-11T18:35:04.619Z,41.25
2022-10-11T18:40:20.116Z,31.13
2022-10-11T18:42:54.864Z,36.60
2022-10-11T18:45:27.530Z,36.75
2022-10-11T18:48:04.996Z,61.38
2022-10-11T18:50:36.652Z,71.27
2022-10-11T18:53:22.404Z,64.15
2022-10-11T18:58:46.855Z,62.53
2022-10-11T19:01:19.680Z,53.70
2022-10-11T19:04:16.212Z,45.72
2022-10-11T19:06:52.116Z,47.90
2022-10-11T19:09:28.674Z,45.15
2022-10-11T19:11:58.965Z,58.85
2022-10-11T19:14:31.237Z,51.58
2022-10-11T19:17:00.891Z,53.38
2022-10-11T19:19:31.251Z,48.20
2022-10-11T19:22:03.497Z,46.17
2022-10-11T19:24:43.100Z,47.13
2022-10-11T19:27:19.081Z,43.13
2022-10-11T19:29:50.513Z,52.42
2022-10-11T19:32:24.167Z,55.33
2022-10-11T19:34:54.452Z,72.07
2022-10-11T19:37:31.874Z,69.53
2022-10-11T19:40:04.150Z,70.43
2022-10-11T19:42:53.838Z,58.65
2022-10-11T19:45:33.059Z,43.75
2022-10-11T19:48:16.442Z,54.30
2022-10-11T19:53:30.528Z,45.53
2022-10-11T19:56:04.028Z,43.67
2022-10-11T19:58:46.840Z,44.47
2022-10-11T20:01:18.910Z,36.67
2022-10-11T20:03:51.888Z,30.55
2022-10-11T20:06:22.622Z,30.65
2022-10-11T20:09:16.721Z,31.60
2022-10-11T20:11:54.054Z,39.05
2022-10-11T20:14:33.366Z,48.53
2022-10-11T20:19:49.833Z,75.53
2022-10-11T20:22:19.810Z,114.60
2022-10-11T20:24:48.279Z,167.48
2022-10-11T20:27:18.026Z,98.05
2022-10-11T20:29:52.733Z,252.63
2022-10-11T20:32:32.723Z,369.10
2022-10-11T20:35:03.123Z,333.70
2022-10-11T20:37:34.805Z,233.15
2022-10-11T20:40:08.241Z,131.13
2022-10-11T20:42:38.885Z,133.15
2022-10-11T20:45:16.016Z,452.33
2022-10-11T20:47:47.583Z,106.53
2022-10-11T20:50:20.829Z,82.93
2022-10-11T20:52:57.873Z,81.13
2022-10-11T20:55:28.085Z,83.93
2022-10-11T20:58:00.192Z,64.32
2022-10-11T21:00:32.644Z,86.43
2022-10-11T21:03:07.063Z,56.95
2022-10-11T21:05:43.528Z,48.75
2022-10-11T21:08:16.180Z,55.03
2022-10-11T21:10:57.796Z,54.30
2022-10-11T21:13:26.216Z,49.30
2022-10-11T21:15:56.690Z,37.45
2022-10-11T21:18:31.704Z,37.45
2022-10-11T21:21:08.936Z,38.67
2022-10-11T21:23:45.606Z,29.92
2022-10-11T21:26:18.430Z,32.92
2022-10-11T21:28:50.422Z,29.90
2022-10-11T21:31:33.538Z,31.30
2022-10-11T21:34:10.640Z,34.90
2022-10-11T21:37:16.230Z,38.50
2022-10-11T21:40:25.143Z,31.73
2022-10-11T21:43:23.283Z,27.73
2022-10-11T21:45:52.459Z,25.47
2022-10-11T21:48:23.218Z,25.95
2022-10-11T21:51:27.553Z,26.65
2022-10-11T21:53:58.077Z,40.97
2022-10-11T21:56:28.157Z,30.20
2022-10-11T21:59:01.995Z,28.48
2022-10-11T22:01:33.320Z,26.98
2022-10-11T22:04:13.980Z,37.65
2022-10-11T22:06:43.096Z,33.60
2022-10-11T22:09:14.569Z,40.97
2022-10-11T22:12:20.519Z,31.35
2022-10-11T22:14:52.092Z,26.77
2022-10-11T22:17:20.728Z,29.52
2022-10-11T22:19:57.528Z,45.67
2022-10-11T22:22:27.161Z,70.45
2022-10-11T22:24:57.483Z,35.95
2022-10-11T22:27:34.864Z,36.10
2022-10-11T22:30:43.442Z,29.83
2022-10-11T22:33:12.109Z,26.52
2022-10-11T22:39:10.746Z,35.97
2022-10-11T22:44:28.126Z,26.75
2022-10-11T22:46:59.327Z,28.38
2022-10-11T22:49:29.217Z,28.25
2022-10-11T22:51:58.211Z,26.77
2022-10-11T22:54:47.614Z,25.80
2022-10-11T22:57:26.714Z,23.33
2022-10-11T22:59:57.675Z,22.23
2022-10-11T23:02:32.858Z,25.30
2022-10-11T23:05:04.088Z,37.38
2022-10-11T23:07:38.130Z,24.38
2022-10-11T23:10:08.062Z,22.13
2022-10-11T23:12:39.101Z,26.35
2022-10-11T23:15:12.238Z,22.85
2022-10-11T23:17:42.552Z,54.97
2022-10-11T23:20:19.050Z,44.00
2022-10-11T23:22:52.491Z,33.38
2022-10-11T23:25:22.605Z,31.95
2022-10-11T23:27:51.669Z,30.55
2022-10-11T23:30:30.244Z,31.55
2022-10-11T23:33:05.673Z,36.47
2022-10-11T23:35:38.717Z,29.73
2022-10-11T23:38:08.453Z,19.23
2022-10-11T23:40:37.475Z,26.60
2022-10-11T23:43:08.877Z,25.80
2022-10-11T23:45:45.391Z,28.17
2022-10-11T23:48:15.304Z,25.65
2022-10-11T23:50:45.149Z,19.83
2022-10-11T23:53:19.252Z,26.17
2022-10-11T23:55:49.916Z,21.55
2022-10-11T23:58:18.836Z,20.50
